Time;durP1;ratioP1;P1;durP2;ratioP2;P2;SDS_P1;SDS_P2;PMS_P1;PMS_P2;Temp;Humidity;BMP_temperature;BMP_pressure;BME280_temperature;BME280_humidity;BME280_pressure;Samples;Min_cycle;Max_cycle;Signal;HPM_P1;HPM_P2
2021/06/08 00:00:15;;;;;;;6.40;4.18;;;;;;;28.06;31.96;94525.50;5105080;28;20040;-55
2021/06/08 00:02:43;;;;;;;4.72;4.32;;;;;;;28.23;31.50;94524.63;5101543;28;20055;-58
2021/06/08 00:05:10;;;;;;;7.88;4.28;;;;;;;28.48;30.75;94529.84;5108264;28;20059;-58
2021/06/08 00:07:38;;;;;;;4.53;4.13;;;;;;;27.64;32.47;94521.16;5109541;28;20046;-58
2021/06/08 00:10:07;;;;;;;4.50;4.00;;;;;;;27.87;31.71;94517.97;5110437;28;20055;-56
2021/06/08 00:12:35;;;;;;;5.47;3.67;;;;;;;28.08;31.66;94515.13;5111883;28;20047;-58
2021/06/08 00:15:04;;;;;;;4.72;3.63;;;;;;;27.94;31.96;94509.84;5095322;28;20043;-57
2021/06/08 00:17:32;;;;;;;5.63;4.05;;;;;;;28.12;31.58;94505.16;5096039;28;20462;-52
2021/06/08 00:19:59;;;;;;;4.07;3.53;;;;;;;27.51;32.66;94501.22;5112888;28;20130;-56
2021/06/08 00:22:27;;;;;;;6.72;3.70;;;;;;;27.57;32.26;94499.66;5114975;28;20055;-56
2021/06/08 00:24:55;;;;;;;5.28;3.72;;;;;;;27.69;31.90;94501.19;5114117;28;20051;-56
2021/06/08 00:27:22;;;;;;;5.90;4.03;;;;;;;27.96;31.57;94504.84;5113234;28;20039;-56
2021/06/08 00:29:49;;;;;;;9.07;4.22;;;;;;;27.97;31.11;94490.25;5113329;28;20055;-57
2021/06/08 00:32:16;;;;;;;4.20;3.80;;;;;;;27.93;31.62;94494.91;5114331;28;20043;-58
2021/06/08 00:34:43;;;;;;;8.75;4.07;;;;;;;27.68;31.70;94489.66;5113968;28;20063;-62
2021/06/08 00:37:10;;;;;;;6.50;3.80;;;;;;;27.69;31.79;94488.50;5113975;28;20051;-58
2021/06/08 00:39:38;;;;;;;5.80;3.88;;;;;;;27.57;31.73;94489.69;5110586;28;20066;-59
2021/06/08 00:42:05;;;;;;;4.63;4.22;;;;;;;27.55;31.84;94483.94;5095549;28;20055;-56
2021/06/08 00:44:32;;;;;;;6.07;3.88;;;;;;;27.78;31.40;94482.69;5111589;28;20465;-61
2021/06/08 00:46:59;;;;;;;6.20;3.85;;;;;;;27.38;32.04;94471.38;5113951;28;20062;-62
2021/06/08 00:49:27;;;;;;;6.78;3.90;;;;;;;27.72;31.50;94473.53;5113371;28;20051;-58
2021/06/08 00:51:54;;;;;;;5.85;3.92;;;;;;;27.24;32.39;94474.13;5113767;28;20396;-58
2021/06/08 00:54:22;;;;;;;5.55;3.63;;;;;;;27.29;32.06;94479.06;5113245;28;20064;-59
2021/06/08 00:56:49;;;;;;;5.50;3.63;;;;;;;27.76;31.04;94474.28;5112200;28;20043;-58
2021/06/08 00:59:24;;;;;;;7.47;3.67;;;;;;;27.69;31.30;94477.00;5112223;28;20054;-58
2021/06/08 01:01:51;;;;;;;3.88;3.58;;;;;;;27.59;31.28;94475.91;5114070;28;20056;-56
2021/06/08 01:04:18;;;;;;;4.55;3.40;;;;;;;27.48;31.73;94465.19;5113073;28;20074;-55
2021/06/08 01:06:48;;;;;;;5.25;3.72;;;;;;;27.42;31.39;94472.13;5113350;28;20063;-58
2021/06/08 01:09:15;;;;;;;4.28;3.78;;;;;;;27.67;31.05;94460.53;5109964;28;20054;-56
2021/06/08 01:11:43;;;;;;;5.88;3.60;;;;;;;27.40;31.63;94455.66;5107945;28;20055;-57
2021/06/08 01:14:10;;;;;;;6.97;3.63;;;;;;;27.38;31.64;94459.88;5102158;28;20043;-56
2021/06/08 01:16:39;;;;;;;3.78;3.38;;;;;;;27.26;31.41;94458.38;5101488;28;20051;-57
2021/06/08 01:19:06;;;;;;;4.40;3.63;;;;;;;27.26;31.74;94463.75;5101334;28;20044;-56
2021/06/08 01:21:34;;;;;;;6.25;4.03;;;;;;;27.66;31.55;94459.00;5101939;28;20048;-55
2021/06/08 01:24:02;;;;;;;5.30;4.40;;;;;;;27.83;31.46;94455.41;5101793;28;20055;-51
2021/06/08 01:26:31;;;;;;;6.18;4.00;;;;;;;27.08;32.43;94457.72;5103418;28;20067;-58
2021/06/08 01:29:00;;;;;;;5.35;4.13;;;;;;;27.57;31.34;94462.84;5101297;28;20052;-57
2021/06/08 01:31:29;;;;;;;4.30;3.90;;;;;;;27.01;32.39;94464.59;5106344;28;20058;-58
2021/06/08 01:33:57;;;;;;;5.13;4.20;;;;;;;27.29;31.51;94462.97;5087367;28;20472;-56
2021/06/08 01:36:27;;;;;;;4.15;3.45;;;;;;;27.08;31.70;94465.75;5107004;28;20390;-57
2021/06/08 01:38:54;;;;;;;4.60;3.78;;;;;;;27.20;31.43;94465.31;5104994;28;20064;-56
2021/06/08 01:41:24;;;;;;;6.00;3.85;;;;;;;27.23;31.18;94454.56;5096859;28;20358;-55
2021/06/08 01:43:52;;;;;;;3.70;3.38;;;;;;;26.91;31.81;94459.25;5081046;28;20058;-54
2021/06/08 01:46:20;;;;;;;4.80;3.72;;;;;;;26.97;31.81;94463.06;5100853;28;20055;-59
2021/06/08 01:48:50;;;;;;;4.40;3.80;;;;;;;27.45;31.10;94465.97;5106961;28;20059;-59
2021/06/08 01:51:37;;;;;;;4.50;4.10;;;;;;;27.14;31.70;94462.28;5107601;28;20050;-59
2021/06/08 01:54:13;;;;;;;4.45;3.85;;;;;;;27.19;31.59;94463.78;5086271;28;20056;-57
2021/06/08 01:56:44;;;;;;;6.55;4.32;;;;;;;27.60;30.92;94461.31;5088705;28;20056;-56
2021/06/08 01:59:47;;;;;;;4.77;3.83;;;;;;;26.85;31.80;94466.94;5086226;28;20064;-56
2021/06/08 02:02:21;;;;;;;4.88;4.10;;;;;;;26.84;32.11;94454.69;5101007;28;20286;-56
2021/06/08 02:05:37;;;;;;;5.15;4.10;;;;;;;27.08;31.65;94463.06;5100799;28;20058;-58
2021/06/08 02:08:21;;;;;;;7.28;4.18;;;;;;;27.06;31.74;94462.66;5083676;28;20051;-56
2021/06/08 02:11:09;;;;;;;5.35;4.10;;;;;;;26.82;31.92;94451.63;5076688;28;20111;-58
2021/06/08 02:14:02;;;;;;;6.38;3.78;;;;;;;26.93;31.37;94447.00;5092272;28;20048;-57
2021/06/08 02:16:31;;;;;;;10.25;4.10;;;;;;;27.01;31.43;94453.88;5090935;28;20055;-56
2021/06/08 02:18:58;;;;;;;7.20;4.15;;;;;;;26.82;31.35;94457.00;5080657;28;20048;-59
2021/06/08 02:21:33;;;;;;;4.80;4.22;;;;;;;26.67;31.70;94450.88;5075412;28;20051;-56
2021/06/08 02:24:02;;;;;;;7.28;4.20;;;;;;;27.40;30.80;94452.19;5092590;28;20047;-60
2021/06/08 02:26:30;;;;;;;5.22;3.90;;;;;;;27.06;31.17;94454.63;5094884;28;20071;-61
2021/06/08 02:28:59;;;;;;;4.88;4.40;;;;;;;26.85;31.49;94466.94;5062488;28;20557;-57
2021/06/08 02:31:27;;;;;;;5.95;4.40;;;;;;;26.88;31.30;94463.47;5079317;28;20067;-59
2021/06/08 02:33:55;;;;;;;7.18;4.25;;;;;;;26.64;32.00;94462.38;5096260;28;20047;-56
2021/06/08 02:36:23;;;;;;;5.40;4.05;;;;;;;26.43;32.23;94462.41;5096929;28;20055;-55
2021/06/08 02:38:50;;;;;;;6.15;4.30;;;;;;;26.73;31.82;94467.34;5078564;28;20359;-57
2021/06/08 02:41:18;;;;;;;5.45;4.10;;;;;;;26.46;31.99;94471.59;5079310;28;20366;-59
2021/06/08 02:43:46;;;;;;;5.35;3.58;;;;;;;26.81;31.58;94474.22;5096483;28;20127;-59
2021/06/08 02:46:13;;;;;;;7.43;4.10;;;;;;;26.87;31.43;94464.63;5078580;28;20492;-54
2021/06/08 02:48:41;;;;;;;10.85;4.53;;;;;;;26.56;31.69;94470.84;5078804;28;20052;-55
2021/06/08 02:51:09;;;;;;;6.60;4.50;;;;;;;26.67;31.66;94466.97;5095843;28;20044;-56
2021/06/08 02:53:37;;;;;;;4.85;4.35;;;;;;;26.74;31.49;94471.53;5079626;28;20047;-55
2021/06/08 02:56:08;;;;;;;8.10;4.00;;;;;;;26.65;31.49;94473.88;5078617;28;20043;-55
2021/06/08 02:58:36;;;;;;;5.70;4.05;;;;;;;26.92;30.92;94476.88;5079319;28;20059;-56
2021/06/08 03:01:05;;;;;;;5.88;4.25;;;;;;;26.34;32.13;94476.22;5077965;28;20043;-55
2021/06/08 03:03:35;;;;;;;6.47;4.72;;;;;;;26.95;31.25;94478.78;5079581;28;20048;-56
2021/06/08 03:06:20;;;;;;;7.20;5.57;;;;;;;26.77;31.51;94481.50;5096714;28;20052;-54
2021/06/08 03:09:07;;;;;;;8.25;4.90;;;;;;;26.71;31.60;94489.19;5096281;28;20051;-58
2021/06/08 03:11:43;;;;;;;6.25;4.65;;;;;;;26.73;31.91;94486.09;5079153;28;20059;-55
2021/06/08 03:14:13;;;;;;;6.18;5.00;;;;;;;26.56;32.20;94486.91;5096861;28;20039;-60
2021/06/08 03:16:50;;;;;;;7.85;5.57;;;;;;;26.95;31.41;94478.78;5096348;28;20062;-56
2021/06/08 03:19:19;;;;;;;12.18;5.63;;;;;;;27.04;31.67;94479.94;5080877;28;20069;-54
2021/06/08 03:21:50;;;;;;;9.07;7.07;;;;;;;26.91;32.12;94484.16;5079098;28;20048;-58
2021/06/08 03:24:19;;;;;;;9.90;8.90;;;;;;;26.61;32.67;94483.84;5096911;28;20047;-54
2021/06/08 03:26:50;;;;;;;12.85;9.73;;;;;;;27.00;32.32;94489.91;5078556;28;20044;-56
2021/06/08 03:29:18;;;;;;;11.63;10.30;;;;;;;26.92;32.70;94483.00;5078416;28;20447;-53
2021/06/08 03:31:47;;;;;;;10.45;9.45;;;;;;;27.02;32.73;94487.59;5077710;28;20466;-58
2021/06/08 03:34:16;;;;;;;13.90;10.15;;;;;;;27.16;32.24;94483.34;5095146;28;20358;-60
2021/06/08 03:36:54;;;;;;;9.77;8.73;;;;;;;26.97;32.41;94487.97;5095399;28;20055;-48
2021/06/08 03:39:24;;;;;;;9.13;8.23;;;;;;;26.98;32.55;94489.50;5095261;28;20521;-57
2021/06/08 03:41:52;;;;;;;11.07;8.35;;;;;;;26.94;32.67;94496.78;5090735;28;20044;-53
2021/06/08 03:44:20;;;;;;;8.40;7.60;;;;;;;27.09;31.72;94496.81;5095295;28;20058;-57
2021/06/08 03:46:49;;;;;;;7.28;6.43;;;;;;;27.03;31.65;94502.53;5095207;28;20363;-59
2021/06/08 03:49:19;;;;;;;7.85;6.53;;;;;;;27.01;31.49;94507.53;5095874;28;20060;-59
2021/06/08 03:51:49;;;;;;;6.40;5.70;;;;;;;26.70;32.19;94513.69;5095995;28;20056;-61
2021/06/08 03:54:16;;;;;;;7.45;6.20;;;;;;;26.74;32.18;94514.44;5096103;28;20056;-57
2021/06/08 03:56:45;;;;;;;7.30;5.57;;;;;;;27.16;31.64;94518.22;5096213;28;20047;-58
2021/06/08 03:59:13;;;;;;;11.57;7.60;;;;;;;26.91;32.00;94520.94;5082017;28;20051;-54
2021/06/08 04:01:42;;;;;;;10.18;6.38;;;;;;;27.27;31.31;94524.31;5095919;28;20043;-56
2021/06/08 04:04:09;;;;;;;8.25;7.45;;;;;;;27.03;31.82;94524.00;5095965;28;20530;-59
2021/06/08 04:06:36;;;;;;;8.02;7.22;;;;;;;26.83;32.23;94522.13;5095408;28;20398;-56
2021/06/08 04:09:08;;;;;;;9.10;7.40;;;;;;;26.94;32.03;94518.25;5095007;28;20044;-61
2021/06/08 04:11:36;;;;;;;10.82;8.88;;;;;;;26.86;32.75;94521.34;5095276;28;20431;-57
2021/06/08 04:14:04;;;;;;;10.95;9.85;;;;;;;27.09;32.76;94524.41;5096074;28;20443;-55
2021/06/08 04:16:33;;;;;;;11.30;10.25;;;;;;;27.37;32.06;94523.53;5096139;28;20051;-57
2021/06/08 04:19:00;;;;;;;10.98;10.07;;;;;;;26.78;33.54;94522.50;5078421;28;20063;-56
2021/06/08 04:21:28;;;;;;;10.27;9.48;;;;;;;27.44;32.41;94523.50;5078403;28;20450;-41
2021/06/08 04:23:59;;;;;;;13.00;9.93;;;;;;;27.29;32.95;94527.38;5077244;28;20066;-46
2021/06/08 04:26:27;;;;;;;11.77;10.40;;;;;;;27.25;32.90;94521.25;5095391;28;20044;-44
2021/06/08 04:28:55;;;;;;;11.65;10.50;;;;;;;27.36;32.73;94526.63;5095116;28;20055;-58
2021/06/08 04:31:23;;;;;;;11.93;10.73;;;;;;;27.52;32.40;94518.84;5080942;28;20273;-47
2021/06/08 04:33:51;;;;;;;12.63;11.38;;;;;;;27.38;33.39;94525.06;5095512;28;20059;-47
2021/06/08 04:36:19;;;;;;;12.68;11.57;;;;;;;27.26;33.80;94517.44;5095553;28;20055;-55
2021/06/08 04:38:46;;;;;;;12.50;11.30;;;;;;;27.18;33.88;94522.06;5076988;28;20047;-43
2021/06/08 04:41:13;;;;;;;13.65;12.27;;;;;;;27.61;33.32;94522.66;5095354;28;20059;-44
2021/06/08 04:43:41;;;;;;;16.55;12.02;;;;;;;27.75;32.59;94521.09;5095917;28;20474;-43
2021/06/08 04:46:11;;;;;;;13.88;11.80;;;;;;;27.52;33.75;94518.84;5095151;28;20055;-43
2021/06/08 04:48:42;;;;;;;13.30;11.98;;;;;;;28.01;32.52;94528.63;5094653;28;20060;-42
2021/06/08 04:51:10;;;;;;;12.63;11.33;;;;;;;27.99;32.56;94536.31;5113939;28;20043;-43
2021/06/08 04:53:41;;;;;;;15.95;13.52;;;;;;;26.10;36.64;94541.22;5083420;28;20044;-58
2021/06/08 04:57:17;;;;;;;14.75;11.85;;;;;;;29.93;29.81;94532.22;5104465;27;20408;-48
2021/06/08 05:00:08;;;;;;;15.77;12.35;;;;;;;28.68;31.10;94532.78;5090157;28;20047;-47
2021/06/08 05:02:40;;;;;;;14.73;13.18;;;;;;;28.74;31.18;94535.78;5091690;28;20051;-48
2021/06/08 05:05:18;;;;;;;13.93;12.63;;;;;;;28.96;30.62;94533.69;5091787;28;20040;-48
2021/06/08 05:07:54;;;;;;;13.40;12.27;;;;;;;28.51;31.69;94533.66;5090218;28;20055;-48
2021/06/08 05:10:22;;;;;;;13.57;12.27;;;;;;;28.32;31.85;94540.34;5090289;28;20374;-48
2021/06/08 05:12:50;;;;;;;14.57;13.00;;;;;;;28.25;32.26;94546.53;5090478;28;20070;-51
2021/06/08 05:15:18;;;;;;;14.32;12.00;;;;;;;28.16;32.74;94548.88;5071896;28;20044;-49
2021/06/08 05:17:46;;;;;;;13.70;12.15;;;;;;;28.20;32.34;94544.22;5070591;28;20053;-48
2021/06/08 05:20:14;;;;;;;13.52;12.32;;;;;;;27.62;33.06;94544.94;5079565;28;20044;-50
2021/06/08 05:22:42;;;;;;;12.32;11.23;;;;;;;28.07;32.73;94543.16;5090239;28;20450;-47
2021/06/08 05:25:09;;;;;;;13.13;11.82;;;;;;;28.33;32.25;94544.56;5090284;28;20409;-47
2021/06/08 05:27:37;;;;;;;10.80;9.73;;;;;;;28.34;33.27;94546.06;5090113;28;20044;-48
2021/06/08 05:30:07;;;;;;;10.15;9.05;;;;;;;28.30;32.71;94544.56;5078875;28;20074;-47
2021/06/08 05:32:36;;;;;;;10.68;9.63;;;;;;;28.56;32.35;94542.06;5091404;28;20432;-47
2021/06/08 05:35:04;;;;;;;9.40;8.55;;;;;;;28.77;32.17;94546.50;5079579;28;20052;-50
2021/06/08 05:37:40;;;;;;;8.98;8.07;;;;;;;29.07;31.88;94545.88;5103823;28;20529;-49
2021/06/08 05:40:08;;;;;;;8.20;7.40;;;;;;;28.95;31.83;94540.25;5082672;28;20052;-48
2021/06/08 05:42:35;;;;;;;8.65;7.85;;;;;;;28.37;32.68;94539.16;5091153;28;20044;-49
2021/06/08 05:45:04;;;;;;;7.38;6.78;;;;;;;28.83;31.89;94550.28;5090871;28;20048;-48
2021/06/08 05:47:31;;;;;;;7.78;7.10;;;;;;;28.75;32.10;94537.31;5091179;28;20363;-47
2021/06/08 05:49:59;;;;;;;8.02;7.28;;;;;;;28.91;31.61;94539.50;5089803;28;20051;-48
2021/06/08 05:52:27;;;;;;;8.25;7.43;;;;;;;29.00;31.84;94540.56;5090780;28;20056;-50
2021/06/08 05:57:25;;;;;;;7.93;7.22;;;;;;;28.68;32.54;94540.84;5038900;28;20050;-47
2021/06/08 05:59:52;;;;;;;7.20;6.60;;;;;;;29.50;31.11;94536.59;5030969;28;20483;-49
2021/06/08 06:02:19;;;;;;;9.30;7.35;;;;;;;29.87;31.18;94536.50;5030851;28;20076;-47
2021/06/08 06:04:47;;;;;;;8.30;7.22;;;;;;;30.04;30.69;94527.44;5043877;28;20060;-49
2021/06/08 06:07:14;;;;;;;8.15;7.22;;;;;;;29.84;31.04;94540.00;5035568;28;20133;-49
2021/06/08 06:09:41;;;;;;;7.95;7.15;;;;;;;29.98;30.67;94542.53;5017545;28;20049;-50
2021/06/08 06:12:09;;;;;;;7.90;6.70;;;;;;;29.99;31.03;94541.34;5017503;28;20048;-48
2021/06/08 06:14:36;;;;;;;8.13;7.15;;;;;;;29.94;31.33;94544.50;5016388;28;20049;-53
2021/06/08 06:17:04;;;;;;;8.30;7.50;;;;;;;31.03;29.75;94545.19;5021144;28;20460;-49
2021/06/08 06:19:31;;;;;;;9.90;8.60;;;;;;;31.51;28.75;94544.72;5032674;28;20049;-47
2021/06/08 06:21:59;;;;;;;11.90;8.88;;;;;;;30.98;29.10;94543.72;5017122;28;20053;-49
2021/06/08 06:24:27;;;;;;;10.55;7.70;;;;;;;29.81;31.30;94540.06;5032674;28;20456;-46
2021/06/08 06:26:56;;;;;;;11.60;7.75;;;;;;;30.52;30.50;94545.22;5027125;28;20046;-48
2021/06/08 06:29:24;;;;;;;8.57;7.75;;;;;;;30.77;29.44;94549.50;5031907;28;20053;-49
2021/06/08 06:31:55;;;;;;;8.57;7.65;;;;;;;30.57;30.14;94547.47;5032473;28;20057;-49
2021/06/08 06:34:25;;;;;;;8.82;7.82;;;;;;;30.45;30.46;94545.34;5020827;28;20431;-48
2021/06/08 06:36:56;;;;;;;8.77;7.25;;;;;;;31.47;28.97;94552.09;5022994;28;20049;-49
2021/06/08 06:39:26;;;;;;;10.02;7.47;;;;;;;30.50;30.37;94544.88;5035591;28;20060;-51
2021/06/08 06:41:56;;;;;;;9.18;7.93;;;;;;;31.02;29.75;94538.28;5036632;28;20251;-51
2021/06/08 06:44:24;;;;;;;8.35;7.55;;;;;;;30.48;30.93;94539.13;5035712;28;20057;-48
2021/06/08 06:46:52;;;;;;;9.85;8.00;;;;;;;30.82;29.75;94536.28;5034393;28;20057;-48
2021/06/08 06:49:23;;;;;;;9.05;7.45;;;;;;;32.21;28.53;94533.59;5036924;28;20049;-49
2021/06/08 06:51:51;;;;;;;8.95;7.88;;;;;;;31.95;28.56;94534.56;5035960;28;20072;-53
2021/06/08 06:54:18;;;;;;;8.07;7.28;;;;;;;31.85;28.60;94526.25;5035451;28;20045;-49
2021/06/08 06:56:45;;;;;;;9.00;7.93;;;;;;;32.13;28.31;94526.81;5032402;28;20503;-48
2021/06/08 06:59:12;;;;;;;9.65;8.65;;;;;;;32.26;27.92;94521.53;5016247;28;20346;-50
2021/06/08 07:01:41;;;;;;;9.05;7.80;;;;;;;32.50;27.59;94518.25;5016528;28;20049;-49
2021/06/08 07:04:09;;;;;;;9.68;7.68;;;;;;;32.48;27.92;94517.16;5031936;28;20057;-50
2021/06/08 07:06:38;;;;;;;11.45;8.73;;;;;;;32.55;27.56;94522.41;5016083;28;20042;-48
2021/06/08 07:09:05;;;;;;;10.73;8.05;;;;;;;33.04;27.75;94519.63;5049271;28;20061;-50
2021/06/08 07:11:33;;;;;;;10.38;8.60;;;;;;;32.96;27.62;94516.38;5036169;28;20440;-49
2021/06/08 07:14:00;;;;;;;7.65;6.95;;;;;;;32.73;28.23;94503.78;5035115;28;20045;-49
2021/06/08 07:16:27;;;;;;;8.23;7.00;;;;;;;33.27;27.23;94507.81;5035802;28;20346;-49
2021/06/08 07:18:54;;;;;;;7.97;6.88;;;;;;;33.04;26.92;94511.50;5014486;28;20054;-49
2021/06/08 07:21:23;;;;;;;7.88;6.88;;;;;;;32.98;26.76;94500.44;5016595;28;20053;-49
2021/06/08 07:23:53;;;;;;;8.18;6.15;;;;;;;33.16;27.45;94504.66;5016159;28;20046;-49
2021/06/08 07:26:22;;;;;;;7.10;6.40;;;;;;;33.09;27.39;94500.19;5015338;28;20050;-49
2021/06/08 07:28:49;;;;;;;8.20;5.93;;;;;;;33.45;27.72;94505.41;5015439;28;20042;-49
2021/06/08 07:31:29;;;;;;;6.40;5.82;;;;;;;33.52;26.54;94507.91;5030953;28;20385;-50
2021/06/08 07:34:06;;;;;;;6.72;5.78;;;;;;;34.04;25.94;94498.69;5018226;28;20050;-51
2021/06/08 07:36:45;;;;;;;7.25;5.32;;;;;;;33.78;25.62;94499.81;5035519;28;20050;-51
2021/06/08 07:39:21;;;;;;;6.93;5.10;;;;;;;34.40;25.36;94506.50;5015401;28;20049;-50
2021/06/08 07:42:10;;;;;;;6.30;4.72;;;;;;;33.58;25.59;94506.22;5031105;28;20054;-49
2021/06/08 07:45:09;;;;;;;7.57;5.10;;;;;;;33.84;25.96;94506.28;5015582;28;20058;-50
2021/06/08 07:47:36;;;;;;;5.88;4.40;;;;;;;34.28;25.04;94508.00;5015204;28;20337;-48
2021/06/08 07:50:08;;;;;;;4.65;3.97;;;;;;;34.17;24.54;94507.59;5031087;28;20058;-49
2021/06/08 07:52:36;;;;;;;6.45;4.57;;;;;;;34.20;25.11;94506.72;5015691;28;20078;-50
2021/06/08 07:55:05;;;;;;;10.88;5.35;;;;;;;34.37;26.03;94515.53;5040214;28;20375;-50
2021/06/08 07:57:32;;;;;;;5.72;5.22;;;;;;;34.73;24.75;94504.28;5028035;28;20054;-47
2021/06/08 07:59:59;;;;;;;10.90;5.78;;;;;;;34.68;25.00;94509.50;5014556;28;20056;-50
2021/06/08 08:02:26;;;;;;;5.93;5.20;;;;;;;34.83;24.78;94505.09;5015456;28;20444;-49
2021/06/08 08:04:56;;;;;;;110.28;44.20;;;;;;;34.85;25.33;94517.06;5033314;28;20893;-48
2021/06/08 08:07:26;;;;;;;60.50;22.73;;;;;;;35.46;23.25;94515.78;5028674;28;20329;-47
2021/06/08 08:10:05;;;;;;;;;;;;;;;35.22;22.94;94506.53;5015825;28;20053;-51
2021/06/08 08:12:38;;;;;;;436.17;169.10;;;;;;;35.78;23.06;94508.41;5014329;28;19913;-50
2021/06/08 08:15:07;;;;;;;77.15;34.70;;;;;;;34.86;24.80;94502.28;5013974;28;20061;-50
2021/06/08 08:17:34;;;;;;;34.85;17.95;;;;;;;35.95;22.46;94512.47;5014248;28;20042;-48
2021/06/08 08:20:04;;;;;;;23.25;12.13;;;;;;;35.30;23.41;94507.03;5014238;28;20053;-50
2021/06/08 08:22:31;;;;;;;15.90;8.40;;;;;;;35.62;21.28;94505.91;5015178;28;20334;-49
2021/06/08 08:24:59;;;;;;;16.48;7.65;;;;;;;35.60;21.48;94511.03;5014054;28;20441;-50
2021/06/08 08:27:26;;;;;;;10.30;6.07;;;;;;;35.33;22.57;94512.31;5013953;28;20376;-52
2021/06/08 08:29:53;;;;;;;7.40;5.05;;;;;;;35.84;20.92;94503.94;5014871;28;20049;-48
2021/06/08 08:32:22;;;;;;;6.22;4.45;;;;;;;35.54;21.86;94499.97;5018594;28;20049;-48
2021/06/08 08:34:50;;;;;;;6.43;4.32;;;;;;;36.24;20.80;94497.75;5033507;28;20048;-49
2021/06/08 08:37:17;;;;;;;6.20;4.50;;;;;;;35.48;22.42;94499.78;5018062;28;20058;-53
2021/06/08 08:39:46;;;;;;;5.45;4.45;;;;;;;35.86;21.73;94492.59;5014935;28;20057;-50
2021/06/08 08:42:13;;;;;;;4.43;4.03;;;;;;;36.20;22.95;94492.47;5014929;28;20041;-49
2021/06/08 08:44:42;;;;;;;5.90;3.80;;;;;;;36.03;22.29;94481.06;5014643;28;20076;-50
2021/06/08 08:47:09;;;;;;;4.72;3.55;;;;;;;36.23;21.66;94485.38;5044231;28;20049;-48
2021/06/08 08:49:36;;;;;;;4.13;3.50;;;;;;;36.05;20.68;94478.66;5033150;28;20448;-49
2021/06/08 08:52:04;;;;;;;4.40;3.30;;;;;;;36.07;20.81;94484.38;5034511;28;20053;-49
2021/06/08 08:54:31;;;;;;;5.38;3.60;;;;;;;35.79;20.40;94478.06;5033315;28;20041;-50
2021/06/08 08:56:58;;;;;;;6.38;3.30;;;;;;;36.32;19.50;94475.28;5032316;28;20463;-49
2021/06/08 08:59:29;;;;;;;3.40;3.10;;;;;;;35.57;20.62;94471.13;5018013;28;20052;-48
2021/06/08 09:01:57;;;;;;;6.57;3.20;;;;;;;36.05;20.18;94467.75;5034419;28;20045;-51
2021/06/08 09:04:25;;;;;;;3.50;3.17;;;;;;;36.54;20.00;94464.28;5034364;28;20049;-49
2021/06/08 09:06:52;;;;;;;4.90;3.28;;;;;;;36.41;20.03;94469.09;5021536;28;20042;-49
2021/06/08 09:09:19;;;;;;;3.40;3.10;;;;;;;36.05;19.97;94461.56;5045706;28;20049;-50
2021/06/08 09:11:47;;;;;;;2.97;2.40;;;;;;;36.00;20.50;94464.88;5033213;28;20057;-49
2021/06/08 09:14:15;;;;;;;3.20;2.90;;;;;;;36.32;20.00;94463.63;5033578;28;20049;-50
2021/06/08 09:16:44;;;;;;;4.20;2.95;;;;;;;35.76;21.66;94456.44;5023896;28;20057;-48
2021/06/08 09:19:12;;;;;;;3.30;3.00;;;;;;;36.32;20.27;94452.75;5014112;28;20372;-48
2021/06/08 09:21:43;;;;;;;4.03;3.00;;;;;;;36.30;20.05;94453.22;5017872;28;20054;-49
2021/06/08 09:24:17;;;;;;;;;;;;;;;36.07;20.95;94443.59;5015026;28;20041;-50
2021/06/08 09:26:53;;;;;;;8.07;4.40;;;;;;;35.73;21.54;94424.72;5017150;28;19925;-47
2021/06/08 09:29:38;;;;;;;9.32;4.53;;;;;;;36.24;21.54;94437.91;5029172;28;20029;-48
2021/06/08 09:32:25;;;;;;;5.07;3.95;;;;;;;36.70;19.18;94434.06;5034157;28;20045;-47
2021/06/08 09:34:56;;;;;;;4.50;3.60;;;;;;;36.38;19.54;94434.63;5034105;28;20380;-50
2021/06/08 09:37:49;;;;;;;7.45;3.70;;;;;;;36.35;20.11;94430.06;5033726;28;20060;-50
2021/06/08 09:40:19;;;;;;;6.20;3.70;;;;;;;36.66;19.80;94422.53;5030509;28;20379;-50
2021/06/08 09:42:48;;;;;;;5.70;3.78;;;;;;;36.45;19.66;94415.28;5036075;28;20041;-50
2021/06/08 09:45:22;;;;;;;5.75;3.70;;;;;;;36.58;19.19;94421.34;5037644;28;20053;-50
2021/06/08 09:48:01;;;;;;;5.57;4.00;;;;;;;36.72;20.26;94414.56;5037218;28;20475;-52
2021/06/08 09:50:32;;;;;;;4.20;3.80;;;;;;;36.78;19.56;94411.97;5037787;28;20450;-50
2021/06/08 09:53:23;;;;;;;4.18;3.78;;;;;;;36.49;20.20;94413.19;5037909;28;20045;-50
2021/06/08 09:56:02;;;;;;;7.63;4.63;;;;;;;36.50;20.21;94417.41;5035282;28;20058;-54
2021/06/08 09:58:30;;;;;;;4.95;4.43;;;;;;;36.23;20.55;94406.47;5017570;28;20064;-51
2021/06/08 10:01:19;;;;;;;7.97;4.68;;;;;;;36.11;20.29;94400.66;5017756;28;20056;-50
2021/06/08 10:03:48;;;;;;;6.93;5.20;;;;;;;36.50;20.68;94398.34;5017677;28;20050;-47
2021/06/08 10:06:22;;;;;;;5.93;4.80;;;;;;;37.19;19.37;94397.72;5017337;28;20045;-50
2021/06/08 10:08:54;;;;;;;12.05;5.43;;;;;;;36.34;20.69;94396.66;5037076;28;20050;-50
2021/06/08 10:11:35;;;;;;;13.75;7.50;;;;;;;36.61;20.43;94397.91;5037346;28;20053;-50
2021/06/08 10:14:13;;;;;;;7.40;4.78;;;;;;;36.62;19.53;94388.50;5036343;28;20468;-50
2021/06/08 10:16:41;;;;;;;4.57;4.18;;;;;;;36.67;19.40;94396.81;5036920;28;20424;-50
2021/06/08 10:19:10;;;;;;;4.45;4.00;;;;;;;36.85;18.62;94395.34;5036767;28;20052;-49
2021/06/08 10:21:42;;;;;;;4.53;4.13;;;;;;;37.05;18.36;94392.91;5037051;28;20083;-49
2021/06/08 10:24:20;;;;;;;6.05;4.75;;;;;;;36.90;18.76;94394.72;5036757;28;20439;-50
2021/06/08 10:26:53;;;;;;;5.28;3.55;;;;;;;36.84;18.23;94404.72;5036491;28;20064;-48
2021/06/08 10:29:23;;;;;;;5.15;3.72;;;;;;;37.05;18.14;94404.56;5023186;28;20046;-47
2021/06/08 10:31:52;;;;;;;4.25;3.90;;;;;;;36.51;18.43;94399.88;5017181;28;20380;-51
2021/06/08 10:34:20;;;;;;;5.13;3.80;;;;;;;36.82;19.40;94401.72;5016932;28;20054;-48
2021/06/08 10:36:48;;;;;;;4.70;3.60;;;;;;;36.84;18.11;94388.38;5017025;28;20453;-48
2021/06/08 10:39:19;;;;;;;18.40;9.40;;;;;;;36.88;19.75;94389.75;5016596;28;20061;-48
2021/06/08 10:41:46;;;;;;;8.80;5.65;;;;;;;37.10;19.04;94384.13;5015985;28;20045;-51
2021/06/08 10:44:22;;;;;;;7.20;4.97;;;;;;;36.85;19.27;94390.66;5015771;28;20061;-50
2021/06/08 10:46:54;;;;;;;6.65;4.95;;;;;;;36.63;18.90;94374.44;5017051;28;20169;-50
2021/06/08 10:49:38;;;;;;;9.10;5.20;;;;;;;36.80;18.99;94371.44;5031765;28;20057;-48
2021/06/08 10:52:11;;;;;;;7.28;4.43;;;;;;;36.51;19.93;94377.34;5016826;28;20052;-49
2021/06/08 10:54:40;;;;;;;31.30;12.35;;;;;;;36.32;20.00;94387.44;5016940;28;20085;-51
2021/06/08 10:57:15;;;;;;;5.95;3.80;;;;;;;36.87;19.46;94387.47;5035711;28;20058;-47
2021/06/08 10:59:52;;;;;;;4.05;3.00;;;;;;;36.42;20.19;94392.44;5019474;28;20055;-49
2021/06/08 11:02:43;;;;;;;5.18;3.17;;;;;;;36.31;20.55;94391.38;5016743;28;20464;-50
2021/06/08 11:05:10;;;;;;;3.92;3.05;;;;;;;36.45;20.33;94398.97;5016124;28;20054;-50
2021/06/08 11:07:44;;;;;;;3.30;2.75;;;;;;;35.86;21.29;94392.75;5016351;28;20061;-51
2021/06/08 11:10:26;;;;;;;4.50;2.75;;;;;;;35.69;21.41;94396.91;5018513;28;20357;-51
2021/06/08 11:13:23;;;;;;;5.97;3.00;;;;;;;35.82;21.52;94401.03;5036001;28;20056;-49
2021/06/08 11:15:51;;;;;;;4.35;2.80;;;;;;;36.04;21.57;94397.50;5003367;28;20049;-48
2021/06/08 11:18:30;;;;;;;3.33;2.53;;;;;;;35.33;21.86;94398.22;5015514;28;20464;-47
2021/06/08 11:21:03;;;;;;;5.38;2.50;;;;;;;35.57;21.95;94395.03;5015293;28;20379;-49
2021/06/08 11:23:44;;;;;;;6.05;5.45;;;;;;;35.17;21.74;94390.28;5019722;28;20092;-49
2021/06/08 11:26:13;;;;;;;4.72;3.25;;;;;;;35.48;21.29;94382.91;5014628;28;20054;-47
2021/06/08 11:28:49;;;;;;;10.52;9.52;;;;;;;36.21;20.88;94381.66;5015907;28;20329;-52
2021/06/08 11:31:19;;;;;;;6.85;5.18;;;;;;;35.36;21.50;94391.91;5055684;28;20074;-48
2021/06/08 11:33:52;;;;;;;3.63;3.33;;;;;;;35.88;20.43;94393.06;5054682;28;20059;-47
2021/06/08 11:36:20;;;;;;;4.72;3.00;;;;;;;35.80;20.88;94383.66;5036423;28;20080;-50
2021/06/08 11:38:49;;;;;;;8.70;3.20;;;;;;;35.82;21.44;94381.22;5015779;28;20388;-47
2021/06/08 11:41:17;;;;;;;5.15;2.75;;;;;;;35.94;20.33;94391.28;5015871;28;20064;-49
2021/06/08 11:43:49;;;;;;;3.97;3.00;;;;;;;35.89;20.65;94389.13;5016159;28;20048;-51
2021/06/08 11:46:22;;;;;;;3.05;2.55;;;;;;;35.60;21.08;94380.53;5013993;28;20068;-49
2021/06/08 11:49:03;;;;;;;3.47;3.00;;;;;;;35.85;20.96;94380.34;5015511;28;20049;-51
2021/06/08 11:51:35;;;;;;;2.97;2.63;;;;;;;35.80;20.73;94381.69;5016001;28;20049;-52